XEJ2312 DRRN-DNSO
Flight info
| Callsign | XEJ2312 |
|---|---|
| Flight time | 0h 31m |
| Altitude | 29000 |
| Route | RN056 DCT DIKSU DCT GULEN DCT USDOP DCT CI08 |
| Aircraft | PC24/M-SBDGIRWY/LB2 |
Departure
| Time | 2026-05-08 18:07 |
|---|---|
| Airport | Diori Hamani International Airport (DRRN) |
Arrival
| Time | 2026-05-08 18:38 |
|---|---|
| Airport | Sadiq Abubakar III International Airport (DNSO) |
| Time | Latitude | Longitude | Altitude | Speed | Heading |
|---|---|---|---|---|---|
| 2026-05-08 18:05 | 13.48164 | 2.17005 | 737 ft | 0 kts | 87° |
| 2026-05-08 18:06 | 13.48165 | 2.17015 | 736 ft | 7 kts | 86° |
| 2026-05-08 18:06 | 13.48173 | 2.17455 | 731 ft | 115 kts | 86° |
| 2026-05-08 18:06 | 13.48236 | 2.18557 | 813 ft | 188 kts | 88° |
| 2026-05-08 18:07 | 13.48355 | 2.19998 | 1524 ft | 213 kts | 89° |
| 2026-05-08 18:07 | 13.48209 | 2.21560 | 2284 ft | 222 kts | 105° |
| 2026-05-08 18:07 | 13.47904 | 2.23141 | 3302 ft | 230 kts | 104° |
| 2026-05-08 18:07 | 13.47590 | 2.24828 | 4064 ft | 250 kts | 102° |
| 2026-05-08 18:08 | 13.47274 | 2.26647 | 4880 ft | 264 kts | 101° |
| 2026-05-08 18:08 | 13.46944 | 2.28501 | 5932 ft | 268 kts | 100° |
| 2026-05-08 18:08 | 13.46603 | 2.30397 | 7049 ft | 270 kts | 100° |
| 2026-05-08 18:08 | 13.46254 | 2.32301 | 8122 ft | 273 kts | 100° |
| 2026-05-08 18:09 | 13.45905 | 2.34227 | 9239 ft | 276 kts | 99° |
| 2026-05-08 18:09 | 13.45557 | 2.36181 | 10226 ft | 283 kts | 99° |
| 2026-05-08 18:09 | 13.45191 | 2.38258 | 10716 ft | 308 kts | 99° |
| 2026-05-08 18:09 | 13.44793 | 2.40511 | 11131 ft | 331 kts | 99° |
| 2026-05-08 18:10 | 13.44373 | 2.42881 | 11912 ft | 340 kts | 99° |
| 2026-05-08 18:10 | 13.43947 | 2.45267 | 12791 ft | 346 kts | 99° |
| 2026-05-08 18:10 | 13.43509 | 2.47723 | 13682 ft | 352 kts | 99° |
| 2026-05-08 18:10 | 13.43065 | 2.50214 | 14470 ft | 357 kts | 99° |
| 2026-05-08 18:11 | 13.42617 | 2.52742 | 15277 ft | 362 kts | 99° |
| 2026-05-08 18:11 | 13.42317 | 2.54435 | 15813 ft | 365 kts | 99° |
| 2026-05-08 18:11 | 13.41702 | 2.57895 | 16864 ft | 371 kts | 99° |
| 2026-05-08 18:11 | 13.41393 | 2.59635 | 17379 ft | 374 kts | 100° |
| 2026-05-08 18:12 | 13.40922 | 2.62282 | 18140 ft | 379 kts | 100° |
| 2026-05-08 18:12 | 13.40446 | 2.64955 | 18817 ft | 383 kts | 100° |
| 2026-05-08 18:12 | 13.39962 | 2.67668 | 19501 ft | 386 kts | 100° |
| 2026-05-08 18:12 | 13.39480 | 2.70367 | 20159 ft | 390 kts | 100° |
| 2026-05-08 18:13 | 13.38986 | 2.73129 | 20805 ft | 395 kts | 100° |
| 2026-05-08 18:13 | 13.38488 | 2.75912 | 21485 ft | 399 kts | 101° |
| 2026-05-08 18:13 | 13.37984 | 2.78730 | 22117 ft | 403 kts | 101° |
| 2026-05-08 18:13 | 13.37477 | 2.81571 | 22750 ft | 407 kts | 101° |
| 2026-05-08 18:14 | 13.36962 | 2.84452 | 23373 ft | 411 kts | 101° |
| 2026-05-08 18:14 | 13.36439 | 2.87357 | 23898 ft | 415 kts | 101° |
| 2026-05-08 18:14 | 13.35911 | 2.90286 | 24402 ft | 419 kts | 101° |
| 2026-05-08 18:14 | 13.35383 | 2.93217 | 24904 ft | 423 kts | 101° |
| 2026-05-08 18:15 | 13.34845 | 2.96198 | 25366 ft | 428 kts | 101° |
| 2026-05-08 18:15 | 13.34301 | 2.99219 | 25835 ft | 432 kts | 101° |
| 2026-05-08 18:15 | 13.33752 | 3.02264 | 26287 ft | 436 kts | 100° |
| 2026-05-08 18:15 | 13.33199 | 3.05337 | 26726 ft | 440 kts | 100° |
| 2026-05-08 18:16 | 13.32636 | 3.08453 | 27177 ft | 444 kts | 100° |
| 2026-05-08 18:16 | 13.32070 | 3.11583 | 27585 ft | 449 kts | 100° |
| 2026-05-08 18:16 | 13.31498 | 3.14748 | 28001 ft | 453 kts | 100° |
| 2026-05-08 18:16 | 13.30919 | 3.17948 | 28414 ft | 457 kts | 100° |
| 2026-05-08 18:17 | 13.30336 | 3.21169 | 28714 ft | 460 kts | 100° |
| 2026-05-08 18:17 | 13.29756 | 3.24369 | 28778 ft | 461 kts | 100° |
| 2026-05-08 18:17 | 13.29170 | 3.27608 | 28605 ft | 460 kts | 100° |
| 2026-05-08 18:17 | 13.28586 | 3.30824 | 28347 ft | 456 kts | 100° |
| 2026-05-08 18:18 | 13.28007 | 3.34007 | 28094 ft | 453 kts | 100° |
| 2026-05-08 18:18 | 13.27428 | 3.37191 | 27844 ft | 450 kts | 100° |
| 2026-05-08 18:18 | 13.26861 | 3.40310 | 27594 ft | 448 kts | 100° |
| 2026-05-08 18:18 | 13.26291 | 3.43442 | 27348 ft | 445 kts | 100° |
| 2026-05-08 18:19 | 13.25724 | 3.46557 | 27103 ft | 443 kts | 100° |
| 2026-05-08 18:19 | 13.25158 | 3.49659 | 26855 ft | 440 kts | 100° |
| 2026-05-08 18:19 | 13.24595 | 3.52748 | 26615 ft | 438 kts | 100° |
| 2026-05-08 18:19 | 13.24035 | 3.55820 | 26372 ft | 435 kts | 101° |
| 2026-05-08 18:20 | 13.23478 | 3.58867 | 26133 ft | 433 kts | 101° |
| 2026-05-08 18:20 | 13.22923 | 3.61898 | 25902 ft | 431 kts | 101° |
| 2026-05-08 18:20 | 13.22370 | 3.64916 | 25670 ft | 428 kts | 101° |
| 2026-05-08 18:20 | 13.21822 | 3.67908 | 25444 ft | 426 kts | 101° |
| 2026-05-08 18:21 | 13.21281 | 3.70860 | 25213 ft | 425 kts | 101° |
| 2026-05-08 18:21 | 13.20736 | 3.73830 | 24983 ft | 424 kts | 101° |
| 2026-05-08 18:21 | 13.20191 | 3.76797 | 24757 ft | 422 kts | 101° |
| 2026-05-08 18:21 | 13.19648 | 3.79754 | 24531 ft | 420 kts | 101° |
| 2026-05-08 18:22 | 13.19108 | 3.82691 | 24311 ft | 418 kts | 101° |
| 2026-05-08 18:22 | 13.18569 | 3.85623 | 24091 ft | 417 kts | 101° |
| 2026-05-08 18:22 | 13.18031 | 3.88541 | 23873 ft | 415 kts | 101° |
| 2026-05-08 18:22 | 13.17496 | 3.91449 | 23658 ft | 414 kts | 101° |
| 2026-05-08 18:23 | 13.16961 | 3.94348 | 23441 ft | 412 kts | 101° |
| 2026-05-08 18:23 | 13.16428 | 3.97242 | 23197 ft | 411 kts | 101° |
| 2026-05-08 18:23 | 13.15904 | 4.00080 | 22947 ft | 409 kts | 101° |
| 2026-05-08 18:23 | 13.15375 | 4.02943 | 22688 ft | 407 kts | 101° |
| 2026-05-08 18:24 | 13.14848 | 4.05791 | 22428 ft | 405 kts | 101° |
| 2026-05-08 18:24 | 13.14324 | 4.08627 | 22181 ft | 403 kts | 101° |
| 2026-05-08 18:24 | 13.13804 | 4.11450 | 21926 ft | 401 kts | 100° |
| 2026-05-08 18:24 | 13.13478 | 4.14288 | 21678 ft | 400 kts | 95° |
| 2026-05-08 18:25 | 13.13258 | 4.17126 | 21431 ft | 398 kts | 95° |
| 2026-05-08 18:25 | 13.13033 | 4.19952 | 21186 ft | 396 kts | 95° |
| 2026-05-08 18:25 | 13.12809 | 4.22729 | 20855 ft | 395 kts | 95° |
| 2026-05-08 18:25 | 13.12578 | 4.25583 | 20117 ft | 398 kts | 95° |
| 2026-05-08 18:26 | 13.12351 | 4.28373 | 19421 ft | 397 kts | 95° |
| 2026-05-08 18:26 | 13.12121 | 4.31191 | 18708 ft | 394 kts | 95° |
| 2026-05-08 18:26 | 13.11893 | 4.33989 | 17991 ft | 391 kts | 95° |
| 2026-05-08 18:26 | 13.11667 | 4.36754 | 17282 ft | 385 kts | 94° |
| 2026-05-08 18:27 | 13.11445 | 4.39471 | 16598 ft | 379 kts | 94° |
| 2026-05-08 18:27 | 13.11299 | 4.41250 | 16147 ft | 376 kts | 94° |
| 2026-05-08 18:27 | 13.11008 | 4.44805 | 15233 ft | 370 kts | 94° |
| 2026-05-08 18:27 | 13.10796 | 4.47394 | 14577 ft | 366 kts | 94° |
| 2026-05-08 18:28 | 13.10583 | 4.49981 | 13908 ft | 362 kts | 93° |
| 2026-05-08 18:28 | 13.10373 | 4.52541 | 13218 ft | 358 kts | 93° |
| 2026-05-08 18:28 | 13.10166 | 4.55066 | 12582 ft | 352 kts | 94° |
| 2026-05-08 18:28 | 13.09963 | 4.57554 | 11943 ft | 347 kts | 94° |
| 2026-05-08 18:29 | 13.09761 | 4.60009 | 11314 ft | 344 kts | 94° |
| 2026-05-08 18:29 | 13.09561 | 4.62448 | 10664 ft | 341 kts | 94° |
| 2026-05-08 18:29 | 13.09329 | 4.64857 | 10165 ft | 335 kts | 98° |
| 2026-05-08 18:29 | 13.08784 | 4.67123 | 10001 ft | 320 kts | 108° |
| 2026-05-08 18:30 | 13.07933 | 4.69174 | 9865 ft | 305 kts | 116° |
| 2026-05-08 18:30 | 13.06995 | 4.71040 | 9682 ft | 293 kts | 115° |
| 2026-05-08 18:30 | 13.06078 | 4.72897 | 9244 ft | 290 kts | 115° |
| 2026-05-08 18:30 | 13.05172 | 4.74740 | 8792 ft | 288 kts | 115° |
| 2026-05-08 18:31 | 13.04273 | 4.76570 | 8362 ft | 286 kts | 115° |
| 2026-05-08 18:31 | 13.03381 | 4.78380 | 7928 ft | 284 kts | 116° |
| 2026-05-08 18:31 | 13.02490 | 4.80187 | 7504 ft | 282 kts | 116° |
| 2026-05-08 18:31 | 13.01606 | 4.81977 | 7076 ft | 280 kts | 116° |
| 2026-05-08 18:32 | 13.00725 | 4.83761 | 6645 ft | 279 kts | 116° |
| 2026-05-08 18:32 | 12.99849 | 4.85535 | 6219 ft | 278 kts | 116° |
| 2026-05-08 18:32 | 12.98975 | 4.87304 | 5784 ft | 277 kts | 116° |
| 2026-05-08 18:32 | 12.98113 | 4.89048 | 5358 ft | 276 kts | 116° |
| 2026-05-08 18:33 | 12.97246 | 4.90802 | 4947 ft | 274 kts | 116° |
| 2026-05-08 18:33 | 12.96385 | 4.92542 | 4535 ft | 273 kts | 116° |
| 2026-05-08 18:33 | 12.95528 | 4.94277 | 4140 ft | 271 kts | 116° |
| 2026-05-08 18:33 | 12.94687 | 4.95978 | 3989 ft | 268 kts | 116° |
| 2026-05-08 18:34 | 12.93842 | 4.97686 | 3943 ft | 267 kts | 116° |
| 2026-05-08 18:34 | 12.93006 | 4.99375 | 3939 ft | 265 kts | 114° |
| 2026-05-08 18:34 | 12.92190 | 5.01072 | 3938 ft | 261 kts | 116° |
| 2026-05-08 18:34 | 12.91393 | 5.02694 | 3938 ft | 246 kts | 116° |
| 2026-05-08 18:35 | 12.90649 | 5.04182 | 3939 ft | 230 kts | 116° |
| 2026-05-08 18:35 | 12.89937 | 5.05600 | 3925 ft | 216 kts | 116° |
| 2026-05-08 18:35 | 12.89304 | 5.06963 | 3859 ft | 208 kts | 108° |
| 2026-05-08 18:35 | 12.89063 | 5.08409 | 3661 ft | 206 kts | 90° |
| 2026-05-08 18:36 | 12.89197 | 5.09818 | 3367 ft | 189 kts | 81° |
| 2026-05-08 18:36 | 12.89453 | 5.11080 | 3005 ft | 177 kts | 79° |
| 2026-05-08 18:36 | 12.89724 | 5.12274 | 2654 ft | 164 kts | 79° |
| 2026-05-08 18:36 | 12.89964 | 5.13356 | 2320 ft | 148 kts | 79° |
| 2026-05-08 18:37 | 12.90184 | 5.14339 | 2009 ft | 134 kts | 80° |
| 2026-05-08 18:37 | 12.90380 | 5.15226 | 1821 ft | 124 kts | 81° |
| 2026-05-08 18:37 | 12.90575 | 5.16091 | 1667 ft | 122 kts | 80° |
| 2026-05-08 18:37 | 12.90763 | 5.16936 | 1529 ft | 126 kts | 80° |
| 2026-05-08 18:38 | 12.90959 | 5.17805 | 1364 ft | 120 kts | 81° |
| 2026-05-08 18:38 | 12.91140 | 5.18617 | 1204 ft | 114 kts | 81° |
| 2026-05-08 18:38 | 12.91309 | 5.19380 | 1048 ft | 107 kts | 77° |
| 2026-05-08 18:38 | 12.91430 | 5.20020 | 1012 ft | 49 kts | 77° |
| 2026-05-08 18:39 | 12.91505 | 5.20162 | 1013 ft | 22 kts | 25° |
| 2026-05-08 18:39 | 12.91655 | 5.20139 | 1013 ft | 23 kts | 335° |
| 2026-05-08 18:39 | 12.91686 | 5.20090 | 1013 ft | 11 kts | 270° |
| 2026-05-08 18:39 | 12.91704 | 5.20002 | 1012 ft | 15 kts | 320° |